Time;durP1;ratioP1;P1;durP2;ratioP2;P2;SDS_P1;SDS_P2;PMS_P1;PMS_P2;Temp;Humidity;BMP_temperature;BMP_pressure;BME280_temperature;BME280_humidity;BME280_pressure;Samples;Min_cycle;Max_cycle;Signal;HPM_P1;HPM_P2
2023/07/28 00:04:20;;;;;;;;;2.00;2.00;;;;;;;;2;243076669;243076669;-68
2023/07/28 00:12:35;;;;;;;;;0.00;0.00;;;;;;;;2;261080650;261080650;-68
2023/07/28 00:21:18;;;;;;;;;0.50;0.50;;;;;;;;2;243076277;243076277;-69
2023/07/28 00:29:33;;;;;;;;;1.00;1.00;;;;;;;;2;261081000;261081000;-70
2023/07/28 00:38:16;;;;;;;;;1.00;1.00;;;;;;;;2;243076469;243076469;-69
2023/07/28 00:46:31;;;;;;;;;0.00;0.00;;;;;;;;2;261081006;261081006;-68
2023/07/28 00:55:14;;;;;;;;;2.50;2.50;;;;;;;;2;243074936;243074936;-70
2023/07/28 01:03:29;;;;;;;;;0.50;0.50;;;;;;;;2;261078910;261078910;-70
2023/07/28 01:12:12;;;;;;;;;1.00;1.00;;;;;;;;2;243073680;243073680;-68
2023/07/28 01:20:29;;;;;;;;;0.00;0.00;;;;;;;;2;261082742;261082742;-68
2023/07/28 01:29:12;;;;;;;;;0.00;0.00;;;;;;;;2;243077454;243077454;-79
2023/07/28 01:37:27;;;;;;;;;0.00;0.00;;;;;;;;2;261071013;261071013;-82
2023/07/28 01:46:10;;;;;;;;;1.50;1.50;;;;;;;;2;243070152;243070152;-81
2023/07/28 01:54:25;;;;;;;;;1.00;1.00;;;;;;;;2;261076609;261076609;-82
2023/07/28 02:03:08;;;;;;;;;0.00;0.00;;;;;;;;2;243073098;243073098;-80
2023/07/28 02:11:23;;;;;;;;;0.50;0.50;;;;;;;;2;261079958;261079958;-80
2023/07/28 02:20:06;;;;;;;;;0.50;0.50;;;;;;;;2;243073742;243073742;-81
2023/07/28 02:28:21;;;;;;;;;0.00;0.00;;;;;;;;2;261078019;261078019;-80
2023/07/28 02:37:04;;;;;;;;;0.50;0.50;;;;;;;;2;243075117;243075117;-80
2023/07/28 02:45:19;;;;;;;;;0.00;0.00;;;;;;;;2;261076163;261076163;-79
2023/07/28 02:54:03;;;;;;;;;0.00;0.00;;;;;;;;2;243071465;243071465;-79
2023/07/28 03:02:18;;;;;;;;;2.00;2.00;;;;;;;;2;261077077;261077077;-80
2023/07/28 03:11:02;;;;;;;;;0.00;0.00;;;;;;;;2;243072871;243072871;-80
2023/07/28 03:19:17;;;;;;;;;1.00;1.00;;;;;;;;2;261076307;261076307;-80
2023/07/28 03:28:00;;;;;;;;;0.50;0.50;;;;;;;;2;243073871;243073871;-80
2023/07/28 03:36:15;;;;;;;;;0.50;0.50;;;;;;;;2;261077483;261077483;-80
2023/07/28 03:44:58;;;;;;;;;0.00;0.00;;;;;;;;2;243071042;243071042;-79
2023/07/28 03:53:13;;;;;;;;;0.00;0.00;;;;;;;;2;261078133;261078133;-81
2023/07/28 04:01:55;;;;;;;;;0.00;0.00;;;;;;;;2;243073254;243073254;-81
2023/07/28 04:10:11;;;;;;;;;0.00;0.00;;;;;;;;2;261078306;261078306;-79
2023/07/28 04:18:53;;;;;;;;;0.50;0.50;;;;;;;;2;243071584;243071584;-79
2023/07/28 04:27:09;;;;;;;;;1.00;1.00;;;;;;;;2;261077954;261077954;-80
2023/07/28 04:35:51;;;;;;;;;0.50;0.50;;;;;;;;2;243072538;243072538;-79
2023/07/28 04:44:06;;;;;;;;;0.00;0.00;;;;;;;;2;261082399;261082399;-80
2023/07/28 04:52:49;;;;;;;;;0.00;0.00;;;;;;;;2;243072119;243072119;-80
2023/07/28 05:01:05;;;;;;;;;0.00;0.00;;;;;;;;2;261080664;261080664;-80
2023/07/28 05:09:47;;;;;;;;;0.00;0.00;;;;;;;;2;243073603;243073603;-80
2023/07/28 05:18:02;;;;;;;;;0.00;0.00;;;;;;;;2;261076588;261076588;-79
2023/07/28 05:26:45;;;;;;;;;0.00;0.00;;;;;;;;2;243072491;243072491;-80
2023/07/28 05:35:00;;;;;;;;;0.00;0.00;;;;;;;;2;261078112;261078112;-80
2023/07/28 05:43:43;;;;;;;;;0.00;0.00;;;;;;;;2;243072126;243072126;-80
2023/07/28 05:51:58;;;;;;;;;0.00;0.00;;;;;;;;2;261078620;261078620;-79
2023/07/28 06:00:40;;;;;;;;;0.00;0.00;;;;;;;;2;243073007;243073007;-80
2023/07/28 06:08:56;;;;;;;;;0.00;0.00;;;;;;;;2;261077479;261077479;-80
2023/07/28 06:17:38;;;;;;;;;0.00;0.00;;;;;;;;2;243071518;243071518;-80
2023/07/28 06:25:54;;;;;;;;;0.00;0.00;;;;;;;;2;261079603;261079603;-80
2023/07/28 06:34:37;;;;;;;;;0.00;0.00;;;;;;;;2;243073327;243073327;-80
2023/07/28 06:42:52;;;;;;;;;0.00;0.00;;;;;;;;2;261077268;261077268;-80
2023/07/28 06:51:35;;;;;;;;;0.00;0.00;;;;;;;;2;243071410;243071410;-80
2023/07/28 06:59:50;;;;;;;;;0.00;0.00;;;;;;;;2;261074461;261074461;-81
2023/07/28 07:08:32;;;;;;;;;0.00;0.00;;;;;;;;2;243072054;243072054;-80
2023/07/28 07:16:48;;;;;;;;;0.00;0.00;;;;;;;;2;261077056;261077056;-80
2023/07/28 07:25:31;;;;;;;;;0.00;0.00;;;;;;;;2;243071009;243071009;-78
2023/07/28 07:33:46;;;;;;;;;0.00;0.00;;;;;;;;2;261078591;261078591;-78
2023/07/28 07:42:40;;;;;;;;;0.00;0.00;;;;;;;;2;243071095;243071095;-79
2023/07/28 07:50:56;;;;;;;;;0.50;0.50;;;;;;;;2;261077355;261077355;-79
2023/07/28 07:59:38;;;;;;;;;0.00;0.00;;;;;;;;2;243074206;243074206;-78
2023/07/28 08:07:57;;;;;;;;;0.00;0.00;;;;;;;;2;261079592;261079592;-80
2023/07/28 08:16:39;;;;;;;;;0.00;0.00;;;;;;;;2;243073385;243073385;-71
2023/07/28 08:24:55;;;;;;;;;0.00;0.00;;;;;;;;2;261079567;261079567;-69
2023/07/28 08:33:37;;;;;;;;;0.00;0.00;;;;;;;;2;243077330;243077330;-70
2023/07/28 08:42:02;;;;;;;;;0.00;0.00;;;;;;;;2;261079322;261079322;-71
2023/07/28 08:50:45;;;;;;;;;0.00;0.00;;;;;;;;2;243077564;243077564;-71
2023/07/28 08:59:00;;;;;;;;;0.00;0.00;;;;;;;;2;261083463;261083463;-71
2023/07/28 09:07:43;;;;;;;;;0.00;0.00;;;;;;;;2;243075474;243075474;-70
2023/07/28 09:15:59;;;;;;;;;0.50;0.50;;;;;;;;2;261080852;261080852;-71
2023/07/28 09:24:42;;;;;;;;;0.00;0.00;;;;;;;;2;243072556;243072556;-73
2023/07/28 09:32:57;;;;;;;;;0.00;0.00;;;;;;;;2;261076163;261076163;-75
2023/07/28 09:41:40;;;;;;;;;0.00;0.00;;;;;;;;2;243073481;243073481;-77
2023/07/28 09:49:58;;;;;;;;;0.00;0.00;;;;;;;;2;261078744;261078744;-76
2023/07/28 09:58:41;;;;;;;;;0.50;0.50;;;;;;;;2;243073818;243073818;-75
2023/07/28 10:06:57;;;;;;;;;0.00;0.00;;;;;;;;2;261080890;261080890;-75
2023/07/28 10:15:39;;;;;;;;;0.50;0.50;;;;;;;;2;243075990;243075990;-74
2023/07/28 10:23:56;;;;;;;;;0.00;0.00;;;;;;;;2;261079808;261079808;-75
2023/07/28 10:32:39;;;;;;;;;0.00;0.00;;;;;;;;2;243072911;243072911;-74
2023/07/28 10:41:04;;;;;;;;;0.50;0.50;;;;;;;;2;261080899;261080899;-74
2023/07/28 10:49:47;;;;;;;;;1.00;1.00;;;;;;;;2;243075162;243075162;-74
2023/07/28 10:58:04;;;;;;;;;0.50;0.50;;;;;;;;2;261080338;261080338;-75
2023/07/28 11:06:47;;;;;;;;;0.00;0.00;;;;;;;;2;243072766;243072766;-75
2023/07/28 11:15:05;;;;;;;;;0.00;0.00;;;;;;;;2;261079791;261079791;-77
2023/07/28 11:23:48;;;;;;;;;0.00;0.00;;;;;;;;2;243072647;243072647;-75
2023/07/28 11:32:03;;;;;;;;;3.00;0.00;;;;;;;;2;261077843;261077843;-76
2023/07/28 11:40:46;;;;;;;;;0.50;0.50;;;;;;;;2;243074405;243074405;-75
2023/07/28 11:49:11;;;;;;;;;0.00;0.00;;;;;;;;2;261080509;261080509;-76
2023/07/28 11:57:54;;;;;;;;;0.00;0.00;;;;;;;;2;243075047;243075047;-73
2023/07/28 12:06:09;;;;;;;;;0.00;0.00;;;;;;;;2;261078789;261078789;-73
2023/07/28 12:14:52;;;;;;;;;0.50;0.50;;;;;;;;2;243072006;243072006;-72
2023/07/28 12:23:08;;;;;;;;;0.00;0.00;;;;;;;;2;261079592;261079592;-72
2023/07/28 12:31:51;;;;;;;;;0.50;0.50;;;;;;;;2;243074895;243074895;-71
2023/07/28 12:40:06;;;;;;;;;1.00;1.00;;;;;;;;2;261080419;261080419;-73
2023/07/28 12:48:49;;;;;;;;;0.00;0.00;;;;;;;;2;243072680;243072680;-73
2023/07/28 12:57:07;;;;;;;;;0.00;0.00;;;;;;;;2;261078332;261078332;-72
2023/07/28 13:05:49;;;;;;;;;0.00;0.00;;;;;;;;2;243073065;243073065;-73
2023/07/28 13:14:05;;;;;;;;;0.00;0.00;;;;;;;;2;261077915;261077915;-72
2023/07/28 13:22:47;;;;;;;;;0.00;0.00;;;;;;;;2;243073632;243073632;-73
2023/07/28 13:31:04;;;;;;;;;0.00;0.00;;;;;;;;2;261078482;261078482;-72
2023/07/28 13:39:46;;;;;;;;;0.50;0.50;;;;;;;;2;243074145;243074145;-73
2023/07/28 13:48:02;;;;;;;;;0.00;0.00;;;;;;;;2;261078816;261078816;-72
2023/07/28 13:56:44;;;;;;;;;0.00;0.00;;;;;;;;2;243073412;243073412;-72
2023/07/28 14:05:00;;;;;;;;;1.50;1.50;;;;;;;;2;261078662;261078662;-73
2023/07/28 14:13:42;;;;;;;;;0.00;0.00;;;;;;;;2;243073897;243073897;-72
2023/07/28 14:21:58;;;;;;;;;0.00;0.00;;;;;;;;2;261077762;261077762;-72
2023/07/28 14:30:40;;;;;;;;;0.00;0.00;;;;;;;;2;243074192;243074192;-73
2023/07/28 14:38:55;;;;;;;;;0.00;0.00;;;;;;;;2;261079795;261079795;-73
2023/07/28 14:47:38;;;;;;;;;0.00;0.00;;;;;;;;2;243073973;243073973;-73
2023/07/28 14:55:53;;;;;;;;;0.00;0.00;;;;;;;;2;261080223;261080223;-72
2023/07/28 15:04:35;;;;;;;;;0.00;0.00;;;;;;;;2;243072120;243072120;-73
2023/07/28 15:12:51;;;;;;;;;0.00;0.00;;;;;;;;2;261076988;261076988;-73
2023/07/28 15:21:33;;;;;;;;;0.00;0.00;;;;;;;;2;243070929;243070929;-73
2023/07/28 15:29:48;;;;;;;;;0.00;0.00;;;;;;;;2;261081741;261081741;-73
2023/07/28 15:38:31;;;;;;;;;0.00;0.00;;;;;;;;2;243074027;243074027;-74
2023/07/28 15:46:47;;;;;;;;;0.00;0.00;;;;;;;;2;261080224;261080224;-74
2023/07/28 15:58:48;;;;;;;;;0.00;0.00;;;;;;;;2;243074959;243074959;-73
2023/07/28 16:07:04;;;;;;;;;1.00;1.00;;;;;;;;2;261081762;261081762;-74
2023/07/28 16:15:46;;;;;;;;;0.00;0.00;;;;;;;;2;243071634;243071634;-74
2023/07/28 16:24:02;;;;;;;;;0.00;0.00;;;;;;;;2;261079083;261079083;-74
2023/07/28 16:32:44;;;;;;;;;0.00;0.00;;;;;;;;2;243072719;243072719;-74
2023/07/28 16:41:00;;;;;;;;;0.00;0.00;;;;;;;;2;261078506;261078506;-74
2023/07/28 16:49:42;;;;;;;;;0.00;0.00;;;;;;;;2;243073828;243073828;-74
2023/07/28 16:57:57;;;;;;;;;0.00;0.00;;;;;;;;2;261079388;261079388;-73
2023/07/28 17:06:40;;;;;;;;;0.00;0.00;;;;;;;;2;243074164;243074164;-74
2023/07/28 17:14:55;;;;;;;;;0.00;0.00;;;;;;;;2;261078393;261078393;-74
2023/07/28 17:23:38;;;;;;;;;0.50;0.50;;;;;;;;2;243074482;243074482;-74
2023/07/28 17:31:53;;;;;;;;;0.00;0.00;;;;;;;;2;261079164;261079164;-74
2023/07/28 17:40:35;;;;;;;;;0.50;0.50;;;;;;;;2;243075383;243075383;-73
2023/07/28 17:48:51;;;;;;;;;0.00;0.00;;;;;;;;2;261079028;261079028;-76
2023/07/28 17:57:33;;;;;;;;;0.00;0.00;;;;;;;;2;243075753;243075753;-75
2023/07/28 18:05:49;;;;;;;;;0.00;0.00;;;;;;;;2;261079948;261079948;-74
2023/07/28 18:14:31;;;;;;;;;1.50;1.50;;;;;;;;2;243071403;243071403;-75
2023/07/28 18:22:46;;;;;;;;;1.50;1.50;;;;;;;;2;261079024;261079024;-75
2023/07/28 18:31:29;;;;;;;;;1.00;1.00;;;;;;;;2;243075914;243075914;-75
2023/07/28 18:39:45;;;;;;;;;0.00;0.00;;;;;;;;2;261077896;261077896;-71
2023/07/28 18:48:27;;;;;;;;;2.00;2.00;;;;;;;;2;243072327;243072327;-71
2023/07/28 18:56:45;;;;;;;;;0.00;0.00;;;;;;;;2;261081980;261081980;-71
2023/07/28 19:05:27;;;;;;;;;0.00;0.00;;;;;;;;2;242887169;242887169;-71
2023/07/28 19:13:42;;;;;;;;;0.00;0.00;;;;;;;;2;261081803;261081803;-72
2023/07/28 19:22:25;;;;;;;;;5.00;5.00;;;;;;;;2;243077073;243077073;-72
2023/07/28 19:30:40;;;;;;;;;1.00;1.00;;;;;;;;2;261079380;261079380;-72
2023/07/28 19:39:23;;;;;;;;;1.00;1.00;;;;;;;;2;243072936;243072936;-72
2023/07/28 19:47:38;;;;;;;;;0.00;0.00;;;;;;;;2;261076087;261076087;-72
2023/07/28 19:56:21;;;;;;;;;0.00;0.00;;;;;;;;2;243072329;243072329;-71
2023/07/28 20:04:38;;;;;;;;;0.50;0.50;;;;;;;;2;261077781;261077781;-71
2023/07/28 20:13:20;;;;;;;;;3.00;3.00;;;;;;;;2;243074487;243074487;-71
2023/07/28 20:21:35;;;;;;;;;0.50;0.50;;;;;;;;2;261077266;261077266;-71
2023/07/28 20:30:18;;;;;;;;;0.50;0.50;;;;;;;;2;242727510;242727510;-70
2023/07/28 20:38:33;;;;;;;;;1.50;1.50;;;;;;;;2;261078970;261078970;-71
2023/07/28 20:47:07;;;;;;;;;2.00;2.00;;;;;;;;2;243072809;243072809;-70
2023/07/28 20:55:00;;;;;;;;;0.00;0.00;;;;;;;;2;247442807;247442807;-70
2023/07/28 21:03:19;;;;;;;;;0.50;0.50;;;;;;;;2;232006344;232006344;-69
2023/07/28 21:11:31;;;;;;;;;1.00;1.00;;;;;;;;2;257543759;257543759;-68
2023/07/28 21:20:13;;;;;;;;;1.00;1.00;;;;;;;;2;243072068;243072068;-68
2023/07/28 21:28:29;;;;;;;;;3.50;3.50;;;;;;;;2;261075605;261075605;-70
2023/07/28 21:37:11;;;;;;;;;2.00;2.00;;;;;;;;2;243074477;243074477;-70
2023/07/28 21:45:27;;;;;;;;;2.00;2.00;;;;;;;;2;261080170;261080170;-70
2023/07/28 21:54:09;;;;;;;;;1.00;1.00;;;;;;;;2;243079345;243079345;-69
2023/07/28 22:02:24;;;;;;;;;4.50;4.50;;;;;;;;2;261079719;261079719;-70
2023/07/28 22:11:07;;;;;;;;;0.00;0.00;;;;;;;;2;243076484;243076484;-69
2023/07/28 22:19:23;;;;;;;;;1.00;1.00;;;;;;;;2;261083152;261083152;-68
2023/07/28 22:28:05;;;;;;;;;2.00;2.00;;;;;;;;2;243084194;243084194;-68
2023/07/28 22:36:21;;;;;;;;;2.50;2.50;;;;;;;;2;261082437;261082437;-68
2023/07/28 22:45:03;;;;;;;;;6.50;6.50;;;;;;;;2;243073808;243073808;-70
2023/07/28 22:53:19;;;;;;;;;1.00;1.00;;;;;;;;2;261079319;261079319;-71
2023/07/28 23:02:02;;;;;;;;;0.50;0.50;;;;;;;;2;243055479;243055479;-69
2023/07/28 23:10:17;;;;;;;;;3.00;3.00;;;;;;;;2;261083762;261083762;-69
2023/07/28 23:18:59;;;;;;;;;4.00;4.00;;;;;;;;2;242740352;242740352;-70
2023/07/28 23:27:15;;;;;;;;;0.00;0.00;;;;;;;;2;261081812;261081812;-69
2023/07/28 23:35:57;;;;;;;;;15.50;3.50;;;;;;;;2;243077952;243077952;-69
2023/07/28 23:44:12;;;;;;;;;2.50;2.50;;;;;;;;2;261082484;261082484;-68
2023/07/28 23:52:55;;;;;;;;;2.50;2.50;;;;;;;;2;243080250;243080250;-69
